Terminal Aerodrome Forecast
Issued by NWS Spokane, WA

Home | Current Version | Previous Version | Text Only | Print | Product List | Glossary On
Versions: 1 2 3 4 5 6 7 8 9 10 11 12 13 14 15 16 17 18 19 20 21 22 23 24 25 26 27 28 29 30 31 32 33
000
FTUS46 KOTX 210031 AAA
TAFGEG
TAF AMD
KGEG 210031Z 2101/2124 23008G15KT P6SM VCTS SCT060CB BKN200
      TEMPO 2101/2102 32020G30KT 5SM TSRA BKN060CB
     FM210400 19006KT P6SM VCSH FEW080 SCT120
     FM210700 16006KT P6SM SCT100
     FM211200 18006KT P6SM FEW060 SCT100
     FM211800 18006KT P6SM SCT060 BKN120=

USA.gov is the U.S. government's official web portal to all federal, state and local government web resources and services.